createdAt,value
2023-03-07T00:00:51.103Z,9.40
2023-03-07T00:01:51.134Z,9.00
2023-03-07T00:02:51.102Z,9.10
2023-03-07T00:03:51.233Z,8.90
2023-03-07T00:04:56.284Z,9.20
2023-03-07T00:05:51.054Z,9.30
2023-03-07T00:06:51.097Z,9.10
2023-03-07T00:07:51.053Z,9.40
2023-03-07T00:08:51.007Z,10.20
2023-03-07T00:09:51.008Z,9.60
2023-03-07T00:10:50.980Z,10.00
2023-03-07T00:11:50.986Z,10.00
2023-03-07T00:12:51.010Z,9.40
2023-03-07T00:13:50.953Z,10.40
2023-03-07T00:14:50.960Z,10.40
2023-03-07T00:15:50.996Z,10.00
2023-03-07T00:16:50.941Z,9.20
2023-03-07T00:17:50.910Z,10.40
2023-03-07T00:18:50.927Z,9.40
2023-03-07T00:19:50.898Z,9.30
2023-03-07T00:20:50.873Z,9.90
2023-03-07T00:21:50.867Z,10.30
2023-03-07T00:22:50.856Z,9.60
2023-03-07T00:23:50.842Z,9.60
2023-03-07T00:24:50.881Z,9.80
2023-03-07T00:25:50.822Z,10.20
2023-03-07T00:26:50.802Z,10.00
2023-03-07T00:27:50.861Z,10.10
2023-03-07T00:28:50.790Z,10.10
2023-03-07T00:29:50.781Z,9.50
2023-03-07T00:30:50.792Z,10.80
2023-03-07T00:31:50.866Z,9.60
2023-03-07T00:32:50.753Z,10.70
2023-03-07T00:33:50.735Z,10.40
2023-03-07T00:34:50.723Z,10.20
2023-03-07T00:35:50.797Z,10.40
2023-03-07T00:36:50.701Z,11.20
2023-03-07T00:37:50.703Z,9.40
2023-03-07T00:38:50.687Z,10.00
2023-03-07T00:39:55.882Z,10.30
2023-03-07T00:40:50.668Z,11.00
2023-03-07T00:41:50.713Z,10.40
2023-03-07T00:42:50.632Z,10.10
2023-03-07T00:43:50.613Z,10.20
2023-03-07T00:44:50.621Z,10.30
2023-03-07T00:45:50.635Z,11.60
2023-03-07T00:46:50.596Z,10.70
2023-03-07T00:47:50.615Z,10.50
2023-03-07T00:48:50.586Z,10.70
2023-03-07T00:49:50.840Z,10.50
2023-03-07T00:50:50.547Z,10.70
2023-03-07T00:51:50.534Z,10.60
2023-03-07T00:52:50.532Z,11.10
2023-03-07T00:53:50.541Z,11.30
2023-03-07T00:54:50.502Z,10.80
2023-03-07T00:55:50.490Z,11.00
2023-03-07T00:56:50.475Z,10.80
2023-03-07T00:57:50.488Z,11.70
2023-03-07T00:58:50.497Z,10.60
2023-03-07T00:59:50.474Z,11.10
2023-03-07T01:00:50.494Z,11.10
2023-03-07T01:01:50.438Z,11.10
2023-03-07T01:02:50.417Z,11.60
2023-03-07T01:03:50.454Z,11.50
2023-03-07T01:04:50.415Z,11.10
2023-03-07T01:05:50.391Z,11.80
2023-03-07T01:06:50.383Z,11.40
2023-03-07T01:07:50.361Z,11.40
2023-03-07T01:08:50.348Z,11.00
2023-03-07T01:09:50.345Z,11.20
2023-03-07T01:10:50.409Z,9.60
2023-03-07T01:11:50.317Z,11.60
2023-03-07T01:12:50.309Z,11.30
2023-03-07T01:13:50.287Z,11.90
2023-03-07T01:14:50.294Z,11.60
2023-03-07T01:15:50.289Z,11.10
2023-03-07T01:16:50.471Z,12.60
2023-03-07T01:17:50.257Z,11.30
2023-03-07T01:18:50.241Z,12.20
2023-03-07T01:19:50.228Z,11.70
2023-03-07T01:20:50.209Z,10.70
2023-03-07T01:21:50.217Z,11.20
2023-03-07T01:22:50.244Z,11.80
2023-03-07T01:23:50.202Z,11.50
2023-03-07T01:24:50.181Z,12.20
2023-03-07T01:25:50.168Z,10.90
2023-03-07T01:26:50.151Z,12.60
2023-03-07T01:27:50.184Z,12.50
2023-03-07T01:28:50.135Z,11.20
2023-03-07T01:29:50.131Z,12.40
2023-03-07T01:30:50.110Z,11.30
2023-03-07T01:31:50.170Z,13.00
2023-03-07T01:32:50.137Z,11.90
2023-03-07T01:33:50.111Z,11.50
2023-03-07T01:34:50.094Z,11.10
2023-03-07T01:35:50.107Z,11.80
2023-03-07T01:36:50.095Z,12.80
2023-03-07T01:37:50.059Z,12.40
2023-03-07T01:38:50.051Z,12.50
2023-03-07T01:39:50.018Z,12.40
2023-03-07T01:40:50.025Z,12.50
2023-03-07T01:41:50.002Z,12.50
2023-03-07T01:42:50.073Z,12.30
2023-03-07T01:43:49.985Z,11.70
2023-03-07T01:44:49.970Z,11.80
2023-03-07T01:45:50.043Z,12.30
2023-03-07T01:46:49.941Z,12.20
2023-03-07T01:47:49.934Z,12.10
2023-03-07T01:48:49.940Z,13.20
2023-03-07T01:49:49.983Z,12.90
2023-03-07T01:50:49.934Z,13.90
2023-03-07T01:51:49.892Z,13.40
2023-03-07T01:52:49.860Z,12.70
2023-03-07T01:53:49.872Z,12.80
2023-03-07T01:54:49.849Z,13.90
2023-03-07T01:55:49.958Z,14.00
2023-03-07T01:56:49.836Z,13.30
2023-03-07T01:57:49.830Z,13.60
2023-03-07T01:58:49.804Z,13.50
2023-03-07T01:59:49.798Z,13.70
2023-03-07T02:00:49.799Z,13.60
2023-03-07T02:01:49.808Z,14.30
2023-03-07T02:02:49.762Z,14.10
2023-03-07T02:03:49.768Z,14.70
2023-03-07T02:04:49.747Z,13.00
2023-03-07T02:05:49.787Z,13.40
2023-03-07T02:06:49.717Z,14.50
2023-03-07T02:07:49.753Z,13.20
2023-03-07T02:08:49.699Z,13.90
2023-03-07T02:09:49.690Z,15.10
2023-03-07T02:10:49.750Z,14.70
2023-03-07T02:11:49.662Z,13.10
2023-03-07T02:12:49.660Z,15.20
2023-03-07T02:13:49.688Z,14.80
2023-03-07T02:14:49.635Z,14.30
2023-03-07T02:15:49.647Z,15.10
2023-03-07T02:16:49.620Z,15.00
2023-03-07T02:17:49.589Z,14.30
2023-03-07T02:18:49.581Z,14.30
2023-03-07T02:19:49.590Z,14.30
2023-03-07T02:20:49.603Z,15.10
2023-03-07T02:21:49.548Z,15.00
2023-03-07T02:22:49.542Z,14.70
2023-03-07T02:23:49.539Z,15.20
2023-03-07T02:24:49.556Z,14.90
2023-03-07T02:25:49.533Z,14.40
2023-03-07T02:26:49.502Z,14.30
2023-03-07T02:27:49.493Z,15.30
2023-03-07T02:28:49.484Z,14.60
2023-03-07T02:29:49.485Z,14.90
2023-03-07T02:30:49.515Z,15.30
2023-03-07T02:31:49.461Z,14.70
2023-03-07T02:32:49.441Z,14.70
2023-03-07T02:33:49.419Z,15.20
2023-03-07T02:34:49.419Z,15.60
2023-03-07T02:35:49.441Z,15.60
2023-03-07T02:36:49.401Z,15.60
2023-03-07T02:37:49.377Z,15.70
2023-03-07T02:38:49.380Z,15.30
2023-03-07T02:39:49.391Z,14.80
2023-03-07T02:40:49.353Z,16.80
2023-03-07T02:41:49.368Z,16.30
2023-03-07T02:42:49.324Z,15.10
2023-03-07T02:43:49.303Z,14.70
2023-03-07T02:44:49.305Z,15.40
2023-03-07T02:45:49.304Z,15.90
2023-03-07T02:46:49.285Z,16.10
2023-03-07T02:47:49.283Z,15.90
2023-03-07T02:48:49.260Z,16.40
2023-03-07T02:49:49.245Z,16.00
2023-03-07T02:50:49.258Z,16.30
2023-03-07T02:51:49.251Z,15.80
2023-03-07T02:52:49.252Z,16.10
2023-03-07T02:53:49.202Z,17.50
2023-03-07T02:54:49.205Z,16.40
2023-03-07T02:55:49.172Z,16.50
2023-03-07T02:56:49.172Z,16.00
2023-03-07T02:57:49.153Z,16.50
2023-03-07T02:58:49.197Z,16.90
2023-03-07T02:59:49.146Z,15.40
2023-03-07T03:00:49.155Z,16.70
2023-03-07T03:01:49.182Z,16.50
2023-03-07T03:02:49.106Z,17.60
2023-03-07T03:03:49.157Z,16.60
2023-03-07T03:04:49.117Z,16.60
2023-03-07T03:05:49.102Z,16.30
2023-03-07T03:06:49.058Z,15.40
2023-03-07T03:07:49.083Z,15.70
2023-03-07T03:08:49.042Z,15.50
2023-03-07T03:09:49.079Z,15.70
2023-03-07T03:10:49.030Z,16.50
2023-03-07T03:11:49.049Z,15.90
2023-03-07T03:12:49.030Z,16.30
2023-03-07T03:13:48.990Z,16.10
2023-03-07T03:14:48.990Z,15.30
2023-03-07T03:15:49.098Z,16.20
2023-03-07T03:16:48.960Z,16.50
2023-03-07T03:17:48.965Z,16.10
2023-03-07T03:18:48.940Z,16.90
2023-03-07T03:19:48.952Z,16.10
2023-03-07T03:20:48.911Z,16.10
2023-03-07T03:21:48.964Z,15.50
2023-03-07T03:22:48.892Z,16.40
2023-03-07T03:23:48.894Z,15.70
2023-03-07T03:24:48.877Z,15.50
2023-03-07T03:25:48.862Z,16.00
2023-03-07T03:26:48.933Z,15.20
2023-03-07T03:27:48.858Z,15.70
2023-03-07T03:28:48.835Z,15.60
2023-03-07T03:29:48.824Z,16.00
2023-03-07T03:30:48.834Z,16.80
2023-03-07T03:31:48.794Z,15.30
2023-03-07T03:32:48.803Z,15.30
2023-03-07T03:33:48.779Z,14.90
2023-03-07T03:34:48.760Z,15.00
2023-03-07T03:35:48.773Z,14.30
2023-03-07T03:36:48.730Z,16.30
2023-03-07T03:37:48.777Z,15.20
2023-03-07T03:38:48.730Z,15.60
2023-03-07T03:39:48.717Z,15.80
2023-03-07T03:40:48.702Z,14.60
2023-03-07T03:41:48.720Z,14.10
2023-03-07T03:42:48.699Z,13.60
2023-03-07T03:43:48.687Z,14.50
2023-03-07T03:44:48.650Z,13.90
2023-03-07T03:45:48.632Z,14.00
2023-03-07T03:46:48.723Z,14.40
2023-03-07T03:47:48.658Z,13.80
2023-03-07T03:48:48.616Z,13.90
2023-03-07T03:49:48.635Z,14.70
2023-03-07T03:50:48.585Z,13.80
2023-03-07T03:51:48.592Z,14.30
2023-03-07T03:52:48.571Z,13.10
2023-03-07T03:53:48.552Z,14.10
2023-03-07T03:54:48.533Z,14.30
2023-03-07T03:55:48.623Z,13.30
2023-03-07T03:56:48.523Z,13.10
2023-03-07T03:57:48.514Z,12.90
2023-03-07T03:58:48.516Z,14.60
2023-03-07T03:59:48.525Z,13.80
2023-03-07T04:00:48.485Z,13.00
2023-03-07T04:01:48.563Z,14.00
2023-03-07T04:02:48.535Z,12.40
2023-03-07T04:03:48.453Z,12.90
2023-03-07T04:04:48.423Z,12.60
2023-03-07T04:05:48.417Z,13.00
2023-03-07T04:06:48.402Z,13.20
2023-03-07T04:07:48.440Z,12.60
2023-03-07T04:08:48.406Z,13.60
2023-03-07T04:09:48.385Z,12.70
2023-03-07T04:10:48.383Z,13.30
2023-03-07T04:11:48.360Z,13.10
2023-03-07T04:12:48.341Z,13.30
2023-03-07T04:13:48.361Z,13.00
2023-03-07T04:14:48.326Z,13.20
2023-03-07T04:15:48.304Z,11.80
2023-03-07T04:16:48.360Z,12.40
2023-03-07T04:17:48.293Z,12.00
2023-03-07T04:18:48.342Z,12.20
2023-03-07T04:19:48.284Z,13.30
2023-03-07T04:20:48.247Z,12.80
2023-03-07T04:21:48.255Z,12.30
2023-03-07T04:22:48.273Z,11.90
2023-03-07T04:23:48.221Z,12.00
2023-03-07T04:24:48.230Z,11.80
2023-03-07T04:25:48.262Z,12.20
2023-03-07T04:26:48.197Z,11.90
2023-03-07T04:27:48.191Z,11.90
2023-03-07T04:28:48.164Z,12.10
2023-03-07T04:29:48.206Z,12.00
2023-03-07T04:30:48.140Z,11.20
2023-03-07T04:31:48.190Z,11.90
2023-03-07T04:32:48.111Z,11.50
2023-03-07T04:33:48.145Z,11.60
2023-03-07T04:34:48.119Z,11.90
2023-03-07T04:35:48.202Z,12.00
2023-03-07T04:36:48.072Z,10.70
2023-03-07T04:37:48.064Z,11.70
2023-03-07T04:38:48.090Z,11.50
2023-03-07T04:39:48.051Z,11.70
2023-03-07T04:40:51.557Z,10.70
2023-03-07T04:41:48.025Z,10.90
2023-03-07T04:42:48.014Z,11.90
2023-03-07T04:43:48.013Z,11.40
2023-03-07T04:44:47.992Z,10.50
2023-03-07T04:45:48.043Z,10.10
2023-03-07T04:46:48.227Z,10.60
2023-03-07T04:47:47.955Z,10.90
2023-03-07T04:48:47.942Z,9.60
2023-03-07T04:49:47.954Z,10.80
2023-03-07T04:50:47.925Z,9.90
2023-03-07T04:51:47.956Z,11.20
2023-03-07T04:52:47.985Z,10.80
2023-03-07T04:53:47.901Z,10.20
2023-03-07T04:54:47.883Z,9.70
2023-03-07T04:55:47.866Z,10.60
2023-03-07T04:56:47.876Z,9.90
2023-03-07T04:57:47.850Z,10.30
2023-03-07T04:58:47.926Z,10.00
2023-03-07T04:59:47.828Z,10.20
2023-03-07T05:00:47.819Z,9.60
2023-03-07T05:01:47.808Z,10.70
2023-03-07T05:02:47.808Z,9.70
2023-03-07T05:03:47.797Z,9.70
2023-03-07T05:04:47.804Z,9.30
2023-03-07T05:05:47.765Z,9.50
2023-03-07T05:06:47.779Z,9.80
2023-03-07T05:07:47.734Z,9.60
2023-03-07T05:08:47.730Z,9.90
2023-03-07T05:09:47.735Z,10.20
2023-03-07T05:10:47.746Z,9.90
2023-03-07T05:11:47.704Z,9.70
2023-03-07T05:12:47.706Z,9.50
2023-03-07T05:13:47.708Z,9.50
2023-03-07T05:14:47.666Z,9.10
2023-03-07T05:15:47.685Z,9.30
2023-03-07T05:16:47.746Z,9.10
2023-03-07T05:17:47.638Z,10.40
2023-03-07T05:18:47.650Z,9.30
2023-03-07T05:19:47.619Z,9.50
2023-03-07T05:20:47.606Z,9.70
2023-03-07T05:21:47.786Z,9.00
2023-03-07T05:22:47.617Z,9.00
2023-03-07T05:23:47.591Z,10.10
2023-03-07T05:24:47.582Z,9.30
2023-03-07T05:25:47.577Z,9.10
2023-03-07T05:26:47.569Z,9.70
2023-03-07T05:27:47.574Z,9.80
2023-03-07T05:28:47.504Z,9.50
2023-03-07T05:29:47.499Z,10.10
2023-03-07T05:30:47.529Z,10.50
2023-03-07T05:31:47.479Z,9.80
2023-03-07T05:32:47.480Z,8.80
2023-03-07T05:33:47.490Z,9.70
2023-03-07T05:34:47.469Z,9.30
2023-03-07T05:35:47.476Z,9.20
2023-03-07T05:36:47.433Z,9.40
2023-03-07T05:37:47.427Z,9.00
2023-03-07T05:38:47.398Z,9.10
2023-03-07T05:39:47.441Z,9.40
2023-03-07T05:40:47.377Z,9.10
2023-03-07T05:41:47.396Z,8.90
2023-03-07T05:42:47.381Z,9.70
2023-03-07T05:43:47.337Z,8.80
2023-03-07T05:44:47.345Z,9.00
2023-03-07T05:45:47.339Z,9.30
2023-03-07T05:46:47.309Z,8.80
2023-03-07T05:47:47.331Z,8.90
2023-03-07T05:48:47.299Z,9.30
2023-03-07T05:49:47.280Z,9.20
2023-03-07T05:50:47.300Z,9.20
2023-03-07T05:51:47.273Z,9.00
2023-03-07T05:52:47.244Z,9.10
2023-03-07T05:53:47.255Z,9.50
2023-03-07T05:54:47.234Z,9.20
2023-03-07T05:55:47.215Z,8.70
2023-03-07T05:56:47.250Z,9.10
2023-03-07T05:57:47.202Z,8.90
2023-03-07T05:58:47.196Z,9.80
2023-03-07T05:59:47.162Z,8.40
2023-03-07T06:00:47.177Z,9.10
2023-03-07T06:01:47.143Z,9.40
2023-03-07T06:02:47.260Z,9.50
2023-03-07T06:03:47.158Z,9.50
2023-03-07T06:04:47.128Z,9.70
2023-03-07T06:05:47.156Z,9.80
2023-03-07T06:06:47.099Z,9.60
2023-03-07T06:07:47.121Z,9.50
2023-03-07T06:08:47.090Z,8.60
2023-03-07T06:09:47.073Z,9.00
2023-03-07T06:10:47.054Z,9.30
2023-03-07T06:11:47.053Z,9.30
2023-03-07T06:12:47.023Z,9.10
2023-03-07T06:13:47.022Z,9.60
2023-03-07T06:14:47.097Z,9.20
2023-03-07T06:15:47.049Z,10.50
2023-03-07T06:16:46.997Z,9.30
2023-03-07T06:17:46.983Z,9.40
2023-03-07T06:18:46.951Z,9.40
2023-03-07T06:19:46.954Z,9.70
2023-03-07T06:20:47.020Z,10.00
2023-03-07T06:21:46.942Z,10.00
2023-03-07T06:22:46.933Z,9.00
2023-03-07T06:23:46.907Z,9.60
2023-03-07T06:24:46.933Z,10.00
2023-03-07T06:25:46.882Z,10.00
2023-03-07T06:26:46.894Z,10.00
2023-03-07T06:27:46.852Z,10.60
2023-03-07T06:28:46.857Z,10.30
2023-03-07T06:29:46.851Z,10.30
2023-03-07T06:30:46.854Z,10.70
2023-03-07T06:31:46.903Z,9.50
2023-03-07T06:32:46.821Z,9.60
2023-03-07T06:33:46.794Z,10.90
2023-03-07T06:34:46.777Z,9.90
2023-03-07T06:35:46.810Z,10.60
2023-03-07T06:36:46.763Z,10.60
2023-03-07T06:37:46.793Z,10.80
2023-03-07T06:38:46.734Z,10.90
2023-03-07T06:39:46.928Z,10.50
2023-03-07T06:40:46.715Z,10.40
2023-03-07T06:41:46.740Z,10.00
2023-03-07T06:42:46.707Z,10.60
2023-03-07T06:43:46.735Z,11.10
2023-03-07T06:44:46.722Z,10.40
2023-03-07T06:45:46.690Z,10.80
2023-03-07T06:46:46.653Z,11.00
2023-03-07T06:47:46.637Z,10.60
2023-03-07T06:48:46.629Z,11.00
2023-03-07T06:49:46.638Z,11.20
2023-03-07T06:50:46.595Z,10.90
2023-03-07T06:51:46.614Z,11.20
2023-03-07T06:52:46.606Z,9.90
2023-03-07T06:53:46.580Z,10.90
2023-03-07T06:54:46.604Z,11.90
2023-03-07T06:55:46.571Z,11.00
2023-03-07T06:56:46.552Z,10.90
2023-03-07T06:57:46.531Z,11.10
2023-03-07T06:58:46.594Z,10.10
2023-03-07T06:59:46.529Z,10.20
2023-03-07T07:00:46.548Z,11.40
2023-03-07T07:01:46.564Z,11.20
2023-03-07T07:02:46.530Z,11.00
2023-03-07T07:03:46.479Z,10.80
2023-03-07T07:04:46.470Z,10.90
2023-03-07T07:05:46.472Z,11.20
2023-03-07T07:06:46.424Z,10.40
2023-03-07T07:07:46.398Z,11.10
2023-03-07T07:08:46.396Z,10.70
2023-03-07T07:09:46.402Z,9.80
2023-03-07T07:10:46.381Z,10.40
2023-03-07T07:11:46.406Z,11.10
2023-03-07T07:12:46.348Z,10.60
2023-03-07T07:13:46.331Z,10.40
2023-03-07T07:14:46.341Z,10.30
2023-03-07T07:15:46.323Z,11.20
2023-03-07T07:16:46.386Z,10.80
2023-03-07T07:17:46.318Z,10.20
2023-03-07T07:18:46.280Z,10.20
2023-03-07T07:19:46.282Z,10.30
2023-03-07T07:20:46.249Z,10.30
2023-03-07T07:21:46.237Z,10.40
2023-03-07T07:22:46.245Z,9.60
2023-03-07T07:23:46.249Z,10.80
2023-03-07T07:24:46.222Z,10.50
2023-03-07T07:25:46.211Z,10.20
2023-03-07T07:26:46.180Z,10.40
2023-03-07T07:27:46.187Z,10.80
2023-03-07T07:28:46.198Z,10.10
2023-03-07T07:29:46.228Z,10.50
2023-03-07T07:30:46.139Z,10.30
2023-03-07T07:31:46.182Z,9.80
2023-03-07T07:32:46.238Z,10.60
2023-03-07T07:33:46.130Z,9.70
2023-03-07T07:34:46.177Z,9.60
2023-03-07T07:35:46.380Z,9.80
2023-03-07T07:36:46.072Z,9.40
2023-03-07T07:37:46.072Z,9.10
2023-03-07T07:38:46.054Z,9.40
2023-03-07T07:39:46.041Z,9.30
2023-03-07T07:40:46.364Z,10.00
2023-03-07T07:41:46.040Z,9.70
2023-03-07T07:42:46.024Z,10.50
2023-03-07T07:43:46.018Z,9.50
2023-03-07T07:44:46.001Z,9.30
2023-03-07T07:45:46.074Z,9.20
2023-03-07T07:46:46.019Z,9.20
2023-03-07T07:47:45.956Z,9.30
2023-03-07T07:48:45.950Z,9.00
2023-03-07T07:49:45.996Z,9.00
2023-03-07T07:50:45.922Z,9.10
2023-03-07T07:51:45.926Z,9.30
2023-03-07T07:52:45.950Z,9.70
2023-03-07T07:53:45.894Z,9.30
2023-03-07T07:54:45.872Z,9.10
2023-03-07T07:55:45.876Z,9.40
2023-03-07T07:56:45.874Z,9.30
2023-03-07T07:57:45.872Z,9.50
2023-03-07T07:58:45.827Z,9.00
2023-03-07T07:59:45.872Z,9.10
2023-03-07T08:00:45.847Z,9.20
2023-03-07T08:01:45.792Z,9.00
2023-03-07T08:02:45.809Z,9.50
2023-03-07T08:03:45.882Z,10.00
2023-03-07T08:04:45.760Z,9.20
2023-03-07T08:05:45.778Z,9.00
2023-03-07T08:06:45.742Z,9.30
2023-03-07T08:07:45.758Z,8.50
2023-03-07T08:08:45.733Z,9.30
2023-03-07T08:09:45.740Z,8.90
2023-03-07T08:10:45.702Z,8.90
2023-03-07T08:11:45.681Z,8.70
2023-03-07T08:12:45.670Z,8.40
2023-03-07T08:13:45.677Z,8.30
2023-03-07T08:14:45.669Z,8.70
2023-03-07T08:15:45.700Z,8.60
2023-03-07T08:16:45.637Z,8.40
2023-03-07T08:17:45.614Z,8.10
2023-03-07T08:18:45.612Z,8.50
2023-03-07T08:19:45.633Z,8.10
2023-03-07T08:20:45.621Z,8.30
2023-03-07T08:21:45.586Z,9.20
2023-03-07T08:22:45.581Z,8.00
2023-03-07T08:23:45.552Z,8.50
2023-03-07T08:24:45.544Z,7.60
2023-03-07T08:25:45.536Z,8.40
2023-03-07T08:26:45.563Z,7.80
2023-03-07T08:27:45.515Z,8.30
2023-03-07T08:28:45.499Z,7.50
2023-03-07T08:29:45.480Z,7.80
2023-03-07T08:30:45.479Z,8.90
2023-03-07T08:31:45.495Z,7.70
2023-03-07T08:32:45.543Z,7.60
2023-03-07T08:33:45.434Z,8.20
2023-03-07T08:34:45.447Z,8.30
2023-03-07T08:35:45.439Z,7.50
2023-03-07T08:36:45.433Z,8.10
2023-03-07T08:37:45.395Z,8.30
2023-03-07T08:38:45.407Z,8.10
2023-03-07T08:39:45.398Z,8.00
2023-03-07T08:40:45.367Z,7.70
2023-03-07T08:41:45.396Z,7.60
2023-03-07T08:42:45.386Z,8.30
2023-03-07T08:43:45.360Z,8.00
2023-03-07T08:44:45.332Z,8.00
2023-03-07T08:45:45.308Z,7.40
2023-03-07T08:46:45.315Z,7.60
2023-03-07T08:47:45.296Z,7.90
2023-03-07T08:48:45.721Z,8.50
2023-03-07T08:49:45.296Z,8.20
2023-03-07T08:50:45.246Z,7.40
2023-03-07T08:51:45.247Z,7.10
2023-03-07T08:52:45.237Z,7.50
2023-03-07T08:53:45.204Z,7.30
2023-03-07T08:54:45.201Z,7.30
2023-03-07T08:55:45.231Z,8.10
2023-03-07T08:56:45.187Z,7.50
2023-03-07T08:57:45.203Z,8.00
2023-03-07T08:58:45.173Z,8.00
2023-03-07T08:59:45.154Z,7.50
2023-03-07T09:00:45.137Z,7.90
2023-03-07T09:01:45.186Z,7.30
2023-03-07T09:02:45.114Z,7.20
2023-03-07T09:03:45.100Z,7.20
2023-03-07T09:04:45.120Z,7.30
2023-03-07T09:05:45.072Z,7.60
2023-03-07T09:06:45.090Z,7.80
2023-03-07T09:07:45.060Z,7.70
2023-03-07T09:08:45.036Z,7.30
2023-03-07T09:09:45.050Z,8.50
2023-03-07T09:10:45.030Z,7.80
2023-03-07T09:11:45.006Z,7.60
2023-03-07T09:12:45.017Z,7.40
2023-03-07T09:13:51.810Z,7.30
2023-03-07T09:14:45.961Z,7.60
2023-03-07T09:15:44.954Z,7.50
2023-03-07T09:16:44.944Z,7.20
2023-03-07T09:17:44.948Z,7.20
2023-03-07T09:18:44.952Z,7.10
2023-03-07T09:19:44.929Z,6.90
2023-03-07T09:20:44.906Z,6.70
2023-03-07T09:21:44.904Z,7.00
2023-03-07T09:22:44.875Z,7.50
2023-03-07T09:23:45.236Z,7.00
2023-03-07T09:24:44.914Z,7.20
2023-03-07T09:25:44.859Z,6.50
2023-03-07T09:26:44.837Z,7.20
2023-03-07T09:27:44.826Z,7.50
2023-03-07T09:28:44.837Z,6.90
2023-03-07T09:29:44.804Z,6.60
2023-03-07T09:30:44.812Z,7.40
2023-03-07T09:31:44.847Z,6.50
2023-03-07T09:32:44.792Z,6.40
2023-03-07T09:33:46.634Z,6.30
2023-03-07T09:34:44.746Z,6.20
2023-03-07T09:35:44.870Z,6.20
2023-03-07T09:36:44.799Z,6.20
2023-03-07T09:37:44.730Z,6.50
2023-03-07T09:38:44.707Z,6.40
2023-03-07T09:39:44.693Z,6.90
2023-03-07T09:40:44.678Z,7.00
2023-03-07T09:41:44.704Z,6.40
2023-03-07T09:42:44.883Z,6.30
2023-03-07T09:43:44.709Z,6.20
2023-03-07T09:44:44.630Z,5.70
2023-03-07T09:45:44.747Z,6.00
2023-03-07T09:46:45.833Z,6.00
2023-03-07T09:47:44.615Z,6.50
2023-03-07T09:48:44.610Z,6.20
2023-03-07T09:49:44.601Z,5.50
2023-03-07T09:50:44.574Z,5.20
2023-03-07T09:51:44.575Z,5.60
2023-03-07T09:52:44.843Z,5.60
2023-03-07T09:53:44.561Z,5.10
2023-03-07T09:54:44.535Z,5.10
2023-03-07T09:55:44.511Z,5.90
2023-03-07T09:56:44.511Z,4.60
2023-03-07T09:57:44.487Z,4.90
2023-03-07T09:58:44.503Z,5.20
2023-03-07T09:59:44.486Z,5.20
2023-03-07T10:00:44.454Z,4.60
2023-03-07T10:01:44.453Z,5.20
2023-03-07T10:02:44.713Z,5.20
2023-03-07T10:03:44.482Z,4.90
2023-03-07T10:04:44.566Z,4.80
2023-03-07T10:05:44.441Z,4.70
2023-03-07T10:06:44.391Z,5.50
2023-03-07T10:07:44.394Z,4.90
2023-03-07T10:08:44.375Z,5.50
2023-03-07T10:09:44.397Z,5.30
2023-03-07T10:10:44.389Z,5.10
2023-03-07T10:11:44.377Z,4.80
2023-03-07T10:12:44.371Z,5.40
2023-03-07T10:13:44.307Z,5.20
2023-03-07T10:14:44.304Z,5.10
2023-03-07T10:15:44.408Z,4.80
2023-03-07T10:16:44.352Z,4.80
2023-03-07T10:17:44.259Z,4.80
2023-03-07T10:18:44.256Z,5.10
2023-03-07T10:19:44.237Z,5.30
2023-03-07T10:20:44.434Z,5.00
2023-03-07T10:21:44.248Z,5.00
2023-03-07T10:22:44.224Z,5.00
2023-03-07T10:23:44.208Z,5.40
2023-03-07T10:24:44.178Z,5.10
2023-03-07T10:25:44.192Z,5.40
2023-03-07T10:26:44.269Z,5.30
2023-03-07T10:27:44.177Z,4.90
2023-03-07T10:28:44.193Z,5.00
2023-03-07T10:29:44.118Z,4.50
2023-03-07T10:30:44.169Z,5.00
2023-03-07T10:31:44.195Z,5.10
2023-03-07T10:32:44.150Z,4.40
2023-03-07T10:33:44.146Z,5.40
2023-03-07T10:34:44.085Z,5.00
2023-03-07T10:35:44.082Z,5.20
2023-03-07T10:36:44.048Z,4.70
2023-03-07T10:37:44.054Z,4.50
2023-03-07T10:38:44.046Z,5.00
2023-03-07T10:39:44.015Z,4.50
2023-03-07T10:40:44.010Z,5.20
2023-03-07T10:41:43.985Z,4.90
2023-03-07T10:42:43.978Z,5.10
2023-03-07T10:43:43.959Z,5.00
2023-03-07T10:44:43.986Z,4.70
2023-03-07T10:45:43.970Z,4.90
2023-03-07T10:46:54.975Z,5.60
2023-03-07T10:47:44.923Z,5.00
2023-03-07T10:48:43.935Z,4.60
2023-03-07T10:49:43.889Z,4.90
2023-03-07T10:50:43.910Z,4.40
2023-03-07T10:51:43.866Z,4.70
2023-03-07T10:52:43.867Z,5.20
2023-03-07T10:53:43.848Z,5.30
2023-03-07T10:54:43.863Z,4.80
2023-03-07T10:55:43.910Z,5.10
2023-03-07T10:56:43.838Z,5.00
2023-03-07T10:57:43.810Z,5.10
2023-03-07T10:58:43.800Z,4.80
2023-03-07T10:59:43.803Z,4.30
2023-03-07T11:00:43.765Z,4.60
2023-03-07T11:01:43.913Z,4.30
2023-03-07T11:02:43.756Z,4.00
2023-03-07T11:03:52.678Z,4.00
2023-03-07T11:04:44.776Z,4.10
2023-03-07T11:05:43.736Z,4.40
2023-03-07T11:06:43.705Z,4.90
2023-03-07T11:07:43.754Z,4.70
2023-03-07T11:08:43.676Z,4.40
2023-03-07T11:09:43.672Z,3.90
2023-03-07T11:10:43.655Z,4.50
2023-03-07T11:11:43.668Z,4.60
2023-03-07T11:12:43.637Z,4.60
2023-03-07T11:13:43.676Z,4.40
2023-03-07T11:14:43.631Z,4.40
2023-03-07T11:15:43.622Z,4.30
2023-03-07T11:16:43.688Z,4.50
2023-03-07T11:17:43.586Z,4.30
2023-03-07T11:18:43.566Z,4.50
2023-03-07T11:19:43.637Z,4.40
2023-03-07T11:20:43.539Z,4.40
2023-03-07T11:21:43.532Z,4.20
2023-03-07T11:22:43.556Z,4.10
2023-03-07T11:23:43.539Z,3.90
2023-03-07T11:24:43.515Z,4.20
2023-03-07T11:25:43.558Z,4.00
2023-03-07T11:26:43.479Z,3.20
2023-03-07T11:27:43.472Z,4.10
2023-03-07T11:28:43.454Z,3.60
2023-03-07T11:29:43.447Z,4.20
2023-03-07T11:30:43.495Z,3.60
2023-03-07T11:31:43.421Z,4.20
2023-03-07T11:32:43.450Z,3.80
2023-03-07T11:33:56.694Z,4.10
2023-03-07T11:34:44.388Z,3.90
2023-03-07T11:35:43.390Z,4.10
2023-03-07T11:36:43.419Z,4.00
2023-03-07T11:37:43.363Z,4.20
2023-03-07T11:38:43.347Z,3.80
2023-03-07T11:39:43.347Z,4.10
2023-03-07T11:40:43.325Z,4.10
2023-03-07T11:41:43.336Z,4.30
2023-03-07T11:42:43.332Z,3.90
2023-03-07T11:43:43.290Z,3.90
2023-03-07T11:44:43.294Z,4.10
2023-03-07T11:45:43.285Z,3.90
2023-03-07T11:46:43.302Z,3.10
2023-03-07T11:47:43.277Z,4.00
2023-03-07T11:48:43.251Z,4.00
2023-03-07T11:49:43.227Z,3.60
2023-03-07T11:50:43.213Z,3.70
2023-03-07T11:51:43.216Z,3.70
2023-03-07T11:52:43.183Z,3.90
2023-03-07T11:53:45.697Z,4.10
2023-03-07T11:54:43.162Z,3.70
2023-03-07T11:55:43.144Z,3.20
2023-03-07T11:56:43.157Z,3.80
2023-03-07T11:57:43.136Z,3.30
2023-03-07T11:58:43.117Z,3.30
2023-03-07T11:59:43.146Z,3.40
2023-03-07T12:00:43.098Z,3.60
2023-03-07T12:01:43.119Z,3.70
2023-03-07T12:02:43.127Z,3.70
2023-03-07T12:03:43.071Z,3.40
2023-03-07T12:04:43.074Z,3.80
2023-03-07T12:05:43.133Z,3.60
2023-03-07T12:06:43.033Z,3.80
2023-03-07T12:07:43.009Z,4.50
2023-03-07T12:08:42.991Z,4.50
2023-03-07T12:09:42.989Z,3.80
2023-03-07T12:10:43.037Z,4.40
2023-03-07T12:11:42.969Z,3.80
2023-03-07T12:12:42.951Z,3.80
2023-03-07T12:13:42.958Z,4.30
2023-03-07T12:14:42.920Z,4.00
2023-03-07T12:15:42.939Z,4.60
2023-03-07T12:16:42.988Z,4.60
2023-03-07T12:17:42.907Z,4.30
2023-03-07T12:18:42.884Z,4.40
2023-03-07T12:19:42.872Z,4.50
2023-03-07T12:20:42.863Z,4.00
2023-03-07T12:21:42.863Z,3.60
2023-03-07T12:22:42.897Z,4.10
2023-03-07T12:23:42.840Z,3.50
2023-03-07T12:24:42.824Z,3.10
2023-03-07T12:25:42.840Z,3.30
2023-03-07T12:26:42.838Z,3.00
2023-03-07T12:27:42.789Z,3.40
2023-03-07T12:28:42.796Z,3.10
2023-03-07T12:29:42.781Z,3.40
2023-03-07T12:30:42.746Z,3.20
2023-03-07T12:31:42.846Z,3.00
2023-03-07T12:32:42.904Z,3.00
2023-03-07T12:33:43.994Z,3.20
2023-03-07T12:34:42.757Z,2.90
2023-03-07T12:35:42.706Z,3.10
2023-03-07T12:36:42.793Z,2.70
2023-03-07T12:37:42.706Z,2.90
2023-03-07T12:38:42.672Z,3.30
2023-03-07T12:39:42.713Z,2.80
2023-03-07T12:40:42.635Z,2.90
2023-03-07T12:41:42.651Z,3.00
2023-03-07T12:42:42.623Z,2.60
2023-03-07T12:43:42.607Z,3.30
2023-03-07T12:44:42.609Z,3.60
2023-03-07T12:45:42.865Z,3.10
2023-03-07T12:46:42.633Z,2.60
2023-03-07T12:47:42.578Z,3.10
2023-03-07T12:48:42.552Z,3.20
2023-03-07T12:49:49.730Z,3.80
2023-03-07T12:50:43.562Z,3.70
2023-03-07T12:51:42.529Z,4.10
2023-03-07T12:52:42.500Z,3.30
2023-03-07T12:53:42.521Z,3.20
2023-03-07T12:54:42.494Z,3.30
2023-03-07T12:55:42.490Z,3.60
2023-03-07T12:56:42.511Z,3.80
2023-03-07T12:57:42.514Z,3.40
2023-03-07T12:58:42.435Z,3.30
2023-03-07T12:59:42.464Z,3.20
2023-03-07T13:00:42.438Z,3.20
2023-03-07T13:01:42.402Z,3.40
2023-03-07T13:02:42.409Z,3.30
2023-03-07T13:03:42.440Z,3.50
2023-03-07T13:04:42.371Z,3.30
2023-03-07T13:05:42.360Z,2.80
2023-03-07T13:06:42.400Z,3.20